createdAt,value
2017-04-30T00:00:18.456Z,21.77
2017-04-30T00:01:28.216Z,21.74
2017-04-30T00:02:37.831Z,21.77
2017-04-30T00:03:47.750Z,21.86
2017-04-30T00:04:57.992Z,21.83
2017-04-30T00:06:08.218Z,21.74
2017-04-30T00:07:18.285Z,21.83
2017-04-30T00:08:28.218Z,21.84
2017-04-30T00:09:37.529Z,21.77
2017-04-30T00:10:47.743Z,21.8
2017-04-30T00:11:57.666Z,21.79
2017-04-30T00:13:07.428Z,21.8
2017-04-30T00:14:17.353Z,21.8
2017-04-30T00:15:27.255Z,21.77
2017-04-30T00:16:37.475Z,21.8
2017-04-30T00:17:47.385Z,21.82
2017-04-30T00:18:57.464Z,21.75
2017-04-30T00:20:07.399Z,21.75
2017-04-30T00:21:17.318Z,21.77
2017-04-30T00:22:27.249Z,21.75
2017-04-30T00:23:36.852Z,21.75
2017-04-30T00:24:46.866Z,21.75
2017-04-30T00:25:56.772Z,21.72
2017-04-30T00:27:06.385Z,21.75
2017-04-30T00:28:16.303Z,21.74
2017-04-30T00:29:26.518Z,21.71
2017-04-30T00:30:36.837Z,21.8
2017-04-30T00:31:46.757Z,21.61
2017-04-30T00:32:56.997Z,21.68
2017-04-30T00:34:06.914Z,21.72
2017-04-30T00:35:16.224Z,21.68
2017-04-30T00:36:26.550Z,21.68
2017-04-30T00:37:36.474Z,21.62
2017-04-30T00:38:46.700Z,21.72
2017-04-30T00:39:56.305Z,21.67
2017-04-30T00:41:06.220Z,21.62
2017-04-30T00:42:15.612Z,21.61
2017-04-30T00:43:24.602Z,21.64
2017-04-30T00:44:34.210Z,21.68
2017-04-30T00:45:44.432Z,21.65
2017-04-30T00:46:54.338Z,21.68
2017-04-30T00:48:04.050Z,21.64
2017-04-30T00:49:14.266Z,21.68
2017-04-30T00:50:24.173Z,21.64
2017-04-30T00:51:33.470Z,21.65
2017-04-30T00:52:43.419Z,21.67
2017-04-30T00:53:53.175Z,21.62
2017-04-30T00:55:03.401Z,21.65
2017-04-30T00:56:13.009Z,21.64
2017-04-30T00:57:22.311Z,21.62
2017-04-30T00:58:32.563Z,21.64
2017-04-30T00:59:42.318Z,21.62
2017-04-30T01:00:52.232Z,21.65
2017-04-30T01:02:02.454Z,21.53
2017-04-30T01:03:11.757Z,21.59
2017-04-30T01:04:21.370Z,21.59
2017-04-30T01:05:31.844Z,21.59
2017-04-30T01:06:41.473Z,21.56
2017-04-30T01:07:51.399Z,21.56
2017-04-30T01:09:01.306Z,21.54
2017-04-30T01:10:11.904Z,21.58
2017-04-30T01:11:22.270Z,21.53
2017-04-30T01:12:32.194Z,21.52
2017-04-30T01:13:42.117Z,21.52
2017-04-30T01:14:51.723Z,21.53
2017-04-30T01:16:01.337Z,21.52
2017-04-30T01:17:11.396Z,21.59
2017-04-30T01:18:21.303Z,21.58
2017-04-30T01:19:30.614Z,21.54
2017-04-30T01:20:40.544Z,21.54
2017-04-30T01:21:50.452Z,21.53
2017-04-30T01:23:00.536Z,21.59
2017-04-30T01:24:10.452Z,21.52
2017-04-30T01:25:20.667Z,21.59
2017-04-30T01:26:30.606Z,21.54
2017-04-30T01:27:40.529Z,21.52
2017-04-30T01:28:50.900Z,21.54
2017-04-30T01:30:01.130Z,21.64
2017-04-30T01:31:10.732Z,21.53
2017-04-30T01:32:20.945Z,21.54
2017-04-30T01:33:30.865Z,21.59
2017-04-30T01:34:41.255Z,21.58
2017-04-30T01:35:51.176Z,21.53
2017-04-30T01:37:01.083Z,21.56
2017-04-30T01:38:11.304Z,21.52
2017-04-30T01:39:21.220Z,21.56
2017-04-30T01:40:31.748Z,21.54
2017-04-30T01:41:40.727Z,21.56
2017-04-30T01:42:50.636Z,21.47
2017-04-30T01:44:00.878Z,21.53
2017-04-30T01:45:11.098Z,21.59
2017-04-30T01:46:21.154Z,21.59
2017-04-30T01:47:30.800Z,21.54
2017-04-30T01:48:40.415Z,21.46
2017-04-30T01:49:50.025Z,21.47
2017-04-30T01:50:59.938Z,21.54
2017-04-30T01:52:10.029Z,21.43
2017-04-30T01:53:20.256Z,21.44
2017-04-30T01:54:30.482Z,21.52
2017-04-30T01:55:40.396Z,21.53
2017-04-30T01:56:50.314Z,21.49
2017-04-30T01:58:00.080Z,21.49
2017-04-30T01:59:09.702Z,21.52
2017-04-30T02:00:20.005Z,21.52
2017-04-30T02:01:29.609Z,21.42
2017-04-30T02:02:39.572Z,21.4
2017-04-30T02:03:49.642Z,21.42
2017-04-30T02:04:59.870Z,21.49
2017-04-30T02:06:09.170Z,21.4
2017-04-30T02:07:18.766Z,21.47
2017-04-30T02:08:28.706Z,21.37
2017-04-30T02:09:39.091Z,21.49
2017-04-30T02:10:49.334Z,21.46
2017-04-30T02:11:58.927Z,21.46
2017-04-30T02:13:09.169Z,21.46
2017-04-30T02:14:19.088Z,21.4
2017-04-30T02:15:29.511Z,21.42
2017-04-30T02:16:39.116Z,21.38
2017-04-30T02:17:49.032Z,21.4
2017-04-30T02:18:58.939Z,21.46
2017-04-30T02:20:09.148Z,21.38
2017-04-30T02:21:19.524Z,21.42
2017-04-30T02:22:29.748Z,21.42
2017-04-30T02:23:39.671Z,21.44
2017-04-30T02:24:49.885Z,21.43
2017-04-30T02:25:59.811Z,21.44
2017-04-30T02:27:09.519Z,21.46
2017-04-30T02:28:19.736Z,21.43
2017-04-30T02:29:29.718Z,21.44
2017-04-30T02:30:39.941Z,21.47
2017-04-30T02:31:49.244Z,21.5
2017-04-30T02:32:59.328Z,21.38
2017-04-30T02:34:09.554Z,21.42
2017-04-30T02:35:19.154Z,21.42
2017-04-30T02:36:29.062Z,21.34
2017-04-30T02:37:38.676Z,21.47
2017-04-30T02:38:48.685Z,21.47
2017-04-30T02:39:58.292Z,21.47
2017-04-30T02:41:07.894Z,21.4
2017-04-30T02:42:17.187Z,21.49
2017-04-30T02:43:27.116Z,21.47
2017-04-30T02:44:37.141Z,21.42
2017-04-30T02:45:46.741Z,21.4
2017-04-30T02:46:56.354Z,21.34
2017-04-30T02:48:05.961Z,21.34
2017-04-30T02:49:15.570Z,21.31
2017-04-30T02:50:25.899Z,21.34
2017-04-30T02:51:35.811Z,21.4
2017-04-30T02:52:45.495Z,21.37
2017-04-30T02:53:55.419Z,21.4
2017-04-30T02:55:05.367Z,21.4
2017-04-30T02:56:15.437Z,21.32
2017-04-30T02:57:25.656Z,21.37
2017-04-30T02:58:35.872Z,21.4
2017-04-30T02:59:45.170Z,21.44
2017-04-30T03:00:55.101Z,21.4
2017-04-30T03:02:05.158Z,21.32
2017-04-30T03:03:14.460Z,21.42
2017-04-30T03:04:24.064Z,21.42
2017-04-30T03:05:33.983Z,21.46
2017-04-30T03:06:43.634Z,21.34
2017-04-30T03:07:53.689Z,21.4
2017-04-30T03:09:03.597Z,21.32
2017-04-30T03:10:13.503Z,21.4
2017-04-30T03:11:23.717Z,21.38
2017-04-30T03:12:33.336Z,21.37
2017-04-30T03:13:43.709Z,21.37
2017-04-30T03:14:53.938Z,21.37
2017-04-30T03:16:03.589Z,21.32
2017-04-30T03:17:13.510Z,21.35
2017-04-30T03:18:22.815Z,21.35
2017-04-30T03:19:32.582Z,21.34
2017-04-30T03:20:42.808Z,21.37
2017-04-30T03:21:52.730Z,21.35
2017-04-30T03:23:02.957Z,21.35
2017-04-30T03:24:12.868Z,21.43
2017-04-30T03:25:22.944Z,21.44
2017-04-30T03:26:32.637Z,21.44
2017-04-30T03:27:42.548Z,21.34
2017-04-30T03:28:52.472Z,21.35
2017-04-30T03:30:02.389Z,21.38
2017-04-30T03:31:12.788Z,21.35
2017-04-30T03:32:22.387Z,21.32
2017-04-30T03:33:32.303Z,21.38
2017-04-30T03:34:42.521Z,21.29
2017-04-30T03:35:52.748Z,21.28
2017-04-30T03:37:02.820Z,21.37
2017-04-30T03:38:12.723Z,21.38
2017-04-30T03:39:22.030Z,21.32
2017-04-30T03:40:31.337Z,21.29
2017-04-30T03:41:41.246Z,21.29
2017-04-30T03:42:51.325Z,21.35
2017-04-30T03:44:01.237Z,21.27
2017-04-30T03:45:11.148Z,21.28
2017-04-30T03:46:21.085Z,21.34
2017-04-30T03:47:31.296Z,21.29
2017-04-30T03:48:41.677Z,21.32
2017-04-30T03:49:51.587Z,21.28
2017-04-30T03:51:01.816Z,21.25
2017-04-30T03:52:11.735Z,21.32
2017-04-30T03:53:21.031Z,21.34
2017-04-30T03:54:30.791Z,21.28
2017-04-30T03:55:40.401Z,21.31
2017-04-30T03:56:50.305Z,21.22
2017-04-30T03:57:59.909Z,21.22
2017-04-30T03:59:09.858Z,21.29
2017-04-30T04:00:20.220Z,21.22
2017-04-30T04:01:29.819Z,21.24
2017-04-30T04:02:39.729Z,21.29
2017-04-30T04:03:49.335Z,21.28
2017-04-30T04:04:59.252Z,21.22
2017-04-30T04:06:09.315Z,21.35
2017-04-30T04:07:19.230Z,21.32
2017-04-30T04:08:29.443Z,21.22
2017-04-30T04:09:39.656Z,21.27
2017-04-30T04:10:49.565Z,21.27
2017-04-30T04:11:59.638Z,21.27
2017-04-30T04:13:09.865Z,21.27
2017-04-30T04:14:19.473Z,21.32
2017-04-30T04:15:29.421Z,21.27
2017-04-30T04:16:39.338Z,21.22
2017-04-30T04:17:49.707Z,21.29
2017-04-30T04:18:59.003Z,21.28
2017-04-30T04:20:09.227Z,21.27
2017-04-30T04:21:19.143Z,21.32
2017-04-30T04:22:28.755Z,21.27
2017-04-30T04:23:38.478Z,21.34
2017-04-30T04:24:48.729Z,21.31
2017-04-30T04:25:59.014Z,21.29
2017-04-30T04:27:08.631Z,21.29
2017-04-30T04:28:17.956Z,21.32
2017-04-30T04:29:27.663Z,21.31
2017-04-30T04:30:37.572Z,21.32
2017-04-30T04:31:47.493Z,21.34
2017-04-30T04:32:57.115Z,21.31
2017-04-30T04:34:07.413Z,21.37
2017-04-30T04:35:17.468Z,21.31
2017-04-30T04:36:27.710Z,21.38
2017-04-30T04:37:37.335Z,21.38
2017-04-30T04:38:47.253Z,21.34
2017-04-30T04:39:57.486Z,21.29
2017-04-30T04:41:07.813Z,21.35
2017-04-30T04:42:17.733Z,21.37
2017-04-30T04:43:27.048Z,21.34
2017-04-30T04:44:37.285Z,21.37
2017-04-30T04:45:47.208Z,21.4
2017-04-30T04:46:57.242Z,21.34
2017-04-30T04:48:07.489Z,21.43
2017-04-30T04:49:17.708Z,21.32
2017-04-30T04:50:27.936Z,21.46
2017-04-30T04:51:37.532Z,21.37
2017-04-30T04:52:47.551Z,21.38
2017-04-30T04:53:57.182Z,21.44
2017-04-30T04:55:07.089Z,21.43
2017-04-30T04:56:16.991Z,21.4
2017-04-30T04:57:26.900Z,21.38
2017-04-30T04:58:36.915Z,21.38
2017-04-30T04:59:46.836Z,21.42
2017-04-30T05:00:56.447Z,21.46
2017-04-30T05:02:06.372Z,21.52
2017-04-30T05:03:16.293Z,21.5
2017-04-30T05:04:26.656Z,21.49
2017-04-30T05:05:36.886Z,21.62
2017-04-30T05:06:47.107Z,21.61
2017-04-30T05:07:57.034Z,21.77
2017-04-30T05:09:06.647Z,22
2017-04-30T05:10:16.977Z,22.14
2017-04-30T05:11:26.890Z,22.33
2017-04-30T05:12:36.831Z,22.65
2017-04-30T05:13:46.450Z,22.82
2017-04-30T05:14:56.394Z,23.05
2017-04-30T05:16:05.789Z,23.25
2017-04-30T05:17:16.028Z,23.46
2017-04-30T05:18:26.254Z,23.68
2017-04-30T05:19:36.489Z,23.87
2017-04-30T05:20:46.094Z,23.98
2017-04-30T05:21:56.105Z,24.03
2017-04-30T05:23:06.332Z,24.28
2017-04-30T05:24:16.247Z,24.28
2017-04-30T05:25:26.165Z,24.46
2017-04-30T05:26:35.779Z,24.58
2017-04-30T05:27:45.500Z,24.64
2017-04-30T05:28:55.732Z,24.71
2017-04-30T05:30:05.658Z,24.81
2017-04-30T05:31:15.297Z,24.87
2017-04-30T05:32:25.509Z,25.13
2017-04-30T05:33:35.844Z,25.27
2017-04-30T05:34:46.076Z,25.51
2017-04-30T05:35:55.376Z,25.67
2017-04-30T05:37:05.299Z,25.95
2017-04-30T05:38:14.609Z,26.01
2017-04-30T05:39:24.934Z,26.26
2017-04-30T05:40:34.857Z,26.47
2017-04-30T05:41:45.072Z,26.63
2017-04-30T05:42:55.052Z,26.88
2017-04-30T05:44:05.293Z,27.03
2017-04-30T05:45:15.316Z,27.28
2017-04-30T05:46:24.932Z,27.34
2017-04-30T05:47:34.844Z,27.51
2017-04-30T05:48:45.079Z,27.69
2017-04-30T05:49:55.306Z,27.88
2017-04-30T05:51:05.384Z,28.04
2017-04-30T05:52:15.602Z,28.19
2017-04-30T05:53:25.518Z,28.36
2017-04-30T05:54:35.433Z,28.55
2017-04-30T05:55:46.027Z,28.71
2017-04-30T05:56:56.345Z,28.95
2017-04-30T05:58:05.942Z,29
2017-04-30T05:59:15.849Z,29.12
2017-04-30T06:00:25.768Z,29.3
2017-04-30T06:01:35.373Z,29.46
2017-04-30T06:02:45.102Z,29.6
2017-04-30T06:03:55.018Z,29.76
2017-04-30T06:05:04.948Z,29.95
2017-04-30T06:06:15.182Z,30.04
2017-04-30T06:07:25.099Z,30.24
2017-04-30T06:08:35.120Z,30.29
2017-04-30T06:09:45.039Z,30.39
2017-04-30T06:10:54.977Z,30.55
2017-04-30T06:12:05.213Z,30.64
2017-04-30T06:13:14.506Z,30.82
2017-04-30T06:14:24.542Z,30.82
2017-04-30T06:15:34.769Z,30.53
2017-04-30T06:16:44.689Z,30.11
2017-04-30T06:17:54.907Z,29.61
2017-04-30T06:19:04.852Z,29.26
2017-04-30T06:20:14.571Z,28.92
2017-04-30T06:21:24.799Z,28.54
2017-04-30T06:22:34.721Z,28.22
2017-04-30T06:23:44.338Z,27.96
2017-04-30T06:24:53.945Z,27.66
2017-04-30T06:26:03.976Z,27.4
2017-04-30T06:27:13.581Z,27.28
2017-04-30T06:28:23.497Z,26.95
2017-04-30T06:29:33.114Z,26.73
2017-04-30T06:30:43.335Z,26.58
2017-04-30T06:31:53.659Z,26.44
2017-04-30T06:33:03.584Z,26.17
2017-04-30T06:34:13.515Z,25.92
2017-04-30T06:35:23.753Z,25.92
2017-04-30T06:36:34.000Z,25.79
2017-04-30T06:37:44.324Z,25.64
2017-04-30T06:38:54.257Z,25.54
2017-04-30T06:40:03.883Z,25.4
2017-04-30T06:41:14.125Z,25.4
2017-04-30T06:42:23.756Z,25.27
2017-04-30T06:43:33.496Z,25.13
2017-04-30T06:44:43.725Z,25.03
2017-04-30T06:45:53.662Z,24.96
2017-04-30T06:47:03.598Z,24.83
2017-04-30T06:48:13.863Z,24.8
2017-04-30T06:49:24.199Z,24.8
2017-04-30T06:50:33.821Z,24.67
2017-04-30T06:51:44.047Z,24.62
2017-04-30T06:52:53.663Z,24.58
2017-04-30T06:54:03.277Z,24.47
2017-04-30T06:55:13.528Z,24.43
2017-04-30T06:56:23.762Z,24.39
2017-04-30T06:57:33.682Z,24.45
2017-04-30T06:58:42.994Z,24.43
2017-04-30T06:59:52.914Z,24.42
2017-04-30T07:01:03.243Z,24.37
2017-04-30T07:02:13.155Z,24.42
2017-04-30T07:03:23.080Z,24.37
2017-04-30T07:04:32.992Z,24.47
2017-04-30T07:05:43.250Z,24.43
2017-04-30T07:06:54.037Z,24.42
2017-04-30T07:08:04.283Z,24.46
2017-04-30T07:09:14.216Z,24.47
2017-04-30T07:10:24.853Z,24.46
2017-04-30T07:11:35.029Z,24.45
2017-04-30T07:12:44.501Z,24.49
2017-04-30T07:13:54.499Z,24.52
2017-04-30T07:15:04.809Z,24.6
2017-04-30T07:16:14.724Z,24.62
2017-04-30T07:17:24.654Z,24.64
2017-04-30T07:18:35.047Z,24.76
2017-04-30T07:19:44.974Z,25.09
2017-04-30T07:20:54.913Z,25.6
2017-04-30T07:22:04.548Z,26.29
2017-04-30T07:23:14.804Z,27.02
2017-04-30T07:24:25.273Z,27.62
2017-04-30T07:25:35.204Z,28.06
2017-04-30T07:26:45.464Z,28.55
2017-04-30T07:27:56.120Z,29.06
2017-04-30T07:29:05.762Z,29.43
2017-04-30T07:30:15.922Z,29.74
2017-04-30T07:31:26.478Z,30.1
2017-04-30T07:32:37.162Z,30.35
2017-04-30T07:33:47.090Z,30.61
2017-04-30T07:34:56.716Z,30.79
2017-04-30T07:36:06.792Z,31.04
2017-04-30T07:37:16.426Z,31.06
2017-04-30T07:38:26.036Z,31.26
2017-04-30T07:39:35.958Z,31.36
2017-04-30T07:40:45.886Z,31.51
2017-04-30T07:41:55.972Z,31.75
2017-04-30T07:43:06.191Z,31.85
2017-04-30T07:44:16.114Z,31.89
2017-04-30T07:45:26.043Z,32.04
2017-04-30T07:46:36.281Z,32.1
2017-04-30T07:47:46.665Z,32.29
2017-04-30T07:48:56.911Z,32.28
2017-04-30T07:50:07.146Z,32.44
2017-04-30T07:51:17.417Z,32.52
2017-04-30T07:52:27.658Z,32.59
2017-04-30T07:53:38.062Z,32.59
2017-04-30T07:54:47.990Z,32.67
2017-04-30T07:55:57.919Z,32.69
2017-04-30T07:57:07.868Z,32.87
2017-04-30T07:58:17.512Z,32.85
2017-04-30T07:59:27.937Z,32.89
2017-04-30T08:00:37.933Z,32.94
2017-04-30T08:01:48.192Z,32.96
2017-04-30T08:02:57.815Z,33.09
2017-04-30T08:04:07.748Z,33.16
2017-04-30T08:05:17.829Z,33.29
2017-04-30T08:06:27.778Z,33.37
2017-04-30T08:07:37.763Z,33.37
2017-04-30T08:08:47.395Z,33.42
2017-04-30T08:09:57.644Z,33.49
2017-04-30T08:11:07.434Z,33.47
2017-04-30T08:12:17.397Z,33.61
2017-04-30T08:13:26.713Z,33.63
2017-04-30T08:14:36.331Z,33.68
2017-04-30T08:15:46.569Z,33.71
2017-04-30T08:16:56.349Z,33.84
2017-04-30T08:18:06.278Z,33.86
2017-04-30T08:19:16.213Z,33.95
2017-04-30T08:20:26.463Z,34.03
2017-04-30T08:21:36.381Z,34.1
2017-04-30T08:22:46.141Z,34.1
2017-04-30T08:23:56.367Z,34.12
2017-04-30T08:25:05.684Z,34.09
2017-04-30T08:26:15.604Z,34.16
2017-04-30T08:27:24.937Z,34.06
2017-04-30T08:28:35.383Z,34.05
2017-04-30T08:29:45.317Z,33.95
2017-04-30T08:30:55.252Z,33.75
2017-04-30T08:32:05.255Z,33.76
2017-04-30T08:33:15.225Z,33.65
2017-04-30T08:34:25.308Z,33.6
2017-04-30T08:35:35.601Z,33.51
2017-04-30T08:36:45.528Z,33.51
2017-04-30T08:37:55.452Z,33.57
2017-04-30T08:39:05.389Z,33.54
2017-04-30T08:40:15.476Z,33.49
2017-04-30T08:41:25.105Z,33.28
2017-04-30T08:42:35.368Z,32.94
2017-04-30T08:43:45.302Z,32.7
2017-04-30T08:44:55.247Z,32.41
2017-04-30T08:46:05.606Z,32.07
2017-04-30T08:47:14.604Z,31.78
2017-04-30T08:48:24.255Z,31.28
2017-04-30T08:49:34.646Z,30.88
2017-04-30T08:50:45.360Z,30.38
2017-04-30T08:51:55.471Z,29.74
2017-04-30T08:53:05.167Z,29.39
2017-04-30T08:54:15.133Z,29.04
2017-04-30T08:55:24.459Z,28.51
2017-04-30T08:56:34.483Z,28.17
2017-04-30T08:57:44.552Z,27.67
2017-04-30T08:58:54.477Z,27.32
2017-04-30T09:00:04.425Z,27.09
2017-04-30T09:01:14.387Z,26.75
2017-04-30T09:02:24.658Z,26.57
2017-04-30T09:03:33.761Z,26.36
2017-04-30T09:04:43.408Z,25.98
2017-04-30T09:05:53.332Z,25.91
2017-04-30T09:07:03.303Z,25.62
2017-04-30T09:08:12.928Z,25.38
2017-04-30T09:09:23.312Z,25.25
2017-04-30T09:10:33.559Z,25.06
2017-04-30T09:11:43.830Z,24.85
2017-04-30T09:12:53.766Z,24.62
2017-04-30T09:14:03.685Z,24.5
2017-04-30T09:15:13.467Z,24.37
2017-04-30T09:16:23.130Z,24.32
2017-04-30T09:17:32.746Z,24.21
2017-04-30T09:18:42.373Z,24.09
2017-04-30T09:19:52.637Z,24.05
2017-04-30T09:21:02.510Z,23.95
2017-04-30T09:22:13.280Z,23.85
2017-04-30T09:23:23.537Z,23.75
2017-04-30T09:24:33.540Z,23.72
2017-04-30T09:25:43.766Z,23.76
2017-04-30T09:26:53.834Z,23.65
2017-04-30T09:28:03.755Z,23.46
2017-04-30T09:29:13.691Z,23.43
2017-04-30T09:30:23.942Z,23.39
2017-04-30T09:31:33.904Z,23.2
2017-04-30T09:32:43.977Z,23.23
2017-04-30T09:33:53.903Z,23.16
2017-04-30T09:35:03.978Z,23.05
2017-04-30T09:36:14.206Z,22.97
2017-04-30T09:37:24.420Z,22.94
2017-04-30T09:38:33.882Z,22.92
2017-04-30T09:39:43.504Z,22.9
2017-04-30T09:40:53.759Z,22.82
2017-04-30T09:42:04.011Z,22.92
2017-04-30T09:43:14.233Z,22.82
2017-04-30T09:44:24.324Z,22.77
2017-04-30T09:45:33.954Z,22.83
2017-04-30T09:46:43.879Z,22.72
2017-04-30T09:47:54.115Z,22.76
2017-04-30T09:49:04.053Z,22.88
2017-04-30T09:50:13.808Z,22.85
2017-04-30T09:51:23.782Z,22.8
2017-04-30T09:52:33.732Z,22.7
2017-04-30T09:53:43.661Z,22.79
2017-04-30T09:54:53.894Z,22.77
2017-04-30T09:56:03.669Z,22.72
2017-04-30T09:57:13.893Z,22.77
2017-04-30T09:58:23.814Z,22.82
2017-04-30T09:59:33.440Z,22.88
2017-04-30T10:00:43.383Z,22.92
2017-04-30T10:01:53.781Z,23.01
2017-04-30T10:03:04.009Z,23.07
2017-04-30T10:04:13.934Z,23.12
2017-04-30T10:05:23.543Z,23.16
2017-04-30T10:06:33.464Z,23.1
2017-04-30T10:07:43.855Z,23.2
2017-04-30T10:08:54.121Z,23.23
2017-04-30T10:10:04.076Z,23.22
2017-04-30T10:11:14.305Z,23.39
2017-04-30T10:12:24.529Z,23.39
2017-04-30T10:13:34.300Z,23.35
2017-04-30T10:14:44.207Z,23.4
2017-04-30T10:15:54.435Z,23.47
2017-04-30T10:17:04.356Z,23.43
2017-04-30T10:18:13.980Z,23.51
2017-04-30T10:19:23.757Z,23.48
2017-04-30T10:20:33.676Z,23.57
2017-04-30T10:21:43.288Z,23.58
2017-04-30T10:22:52.914Z,23.55
2017-04-30T10:24:02.833Z,23.65
2017-04-30T10:25:13.262Z,23.63
2017-04-30T10:26:23.177Z,23.61
2017-04-30T10:27:33.421Z,23.66
2017-04-30T10:28:43.053Z,23.68
2017-04-30T10:29:52.688Z,23.61
2017-04-30T10:31:02.783Z,23.63
2017-04-30T10:32:12.446Z,23.63
2017-04-30T10:33:22.671Z,23.66
2017-04-30T10:34:32.900Z,23.65
2017-04-30T10:35:42.873Z,23.68
2017-04-30T10:36:53.296Z,23.63
2017-04-30T10:38:03.232Z,23.6
2017-04-30T10:39:13.192Z,23.65
2017-04-30T10:40:22.529Z,23.68
2017-04-30T10:41:32.450Z,23.65
2017-04-30T10:42:42.836Z,23.68
2017-04-30T10:43:52.769Z,23.73
2017-04-30T10:45:02.687Z,23.69
2017-04-30T10:46:12.619Z,23.87
2017-04-30T10:47:22.877Z,23.69
2017-04-30T10:48:32.703Z,23.75
2017-04-30T10:49:42.036Z,23.78
2017-04-30T10:50:52.277Z,23.69
2017-04-30T10:52:01.889Z,23.75
2017-04-30T10:53:11.530Z,23.72
2017-04-30T10:54:21.554Z,23.68
2017-04-30T10:55:31.484Z,23.68
2017-04-30T10:56:41.743Z,23.83
2017-04-30T10:57:51.687Z,23.76
2017-04-30T10:59:01.914Z,23.75
2017-04-30T11:00:12.247Z,23.75
2017-04-30T11:01:21.871Z,23.8
2017-04-30T11:02:31.483Z,23.78
2017-04-30T11:03:40.826Z,23.8
2017-04-30T11:04:50.439Z,23.76
2017-04-30T11:06:00.459Z,23.78
2017-04-30T11:07:10.383Z,23.84
2017-04-30T11:08:20.028Z,23.83
2017-04-30T11:09:30.283Z,23.79
2017-04-30T11:10:40.210Z,23.78
2017-04-30T11:11:50.257Z,23.88
2017-04-30T11:13:00.222Z,23.79
2017-04-30T11:14:09.854Z,23.76
2017-04-30T11:15:19.790Z,23.88
2017-04-30T11:16:29.744Z,23.79
2017-04-30T11:17:39.832Z,23.88
2017-04-30T11:18:50.175Z,23.87
2017-04-30T11:20:00.458Z,23.9
2017-04-30T11:21:10.378Z,23.79
2017-04-30T11:22:20.303Z,23.87
2017-04-30T11:23:30.679Z,23.94
2017-04-30T11:24:40.611Z,23.85
2017-04-30T11:25:50.521Z,23.85
2017-04-30T11:27:00.444Z,23.79
2017-04-30T11:28:10.367Z,23.73
2017-04-30T11:29:20.794Z,23.73
2017-04-30T11:30:30.714Z,23.73
2017-04-30T11:31:40.617Z,23.83
2017-04-30T11:32:50.223Z,23.72
2017-04-30T11:34:00.144Z,23.79
2017-04-30T11:35:10.233Z,23.73
2017-04-30T11:36:20.469Z,23.84
2017-04-30T11:37:30.411Z,23.69
2017-04-30T11:38:40.344Z,23.84
2017-04-30T11:39:50.268Z,23.76
2017-04-30T11:41:00.645Z,23.78
2017-04-30T11:42:10.863Z,23.73
2017-04-30T11:43:20.805Z,23.75
2017-04-30T11:44:31.036Z,23.76
2017-04-30T11:45:40.984Z,23.72
2017-04-30T11:46:51.116Z,23.72
2017-04-30T11:48:01.027Z,23.69
2017-04-30T11:49:10.348Z,23.69
2017-04-30T11:50:20.272Z,23.73
2017-04-30T11:51:30.505Z,23.72
2017-04-30T11:52:40.882Z,23.7
2017-04-30T11:53:50.495Z,23.78
2017-04-30T11:55:00.750Z,23.69
2017-04-30T11:56:10.722Z,23.65
2017-04-30T11:57:20.358Z,23.68
2017-04-30T11:58:30.757Z,23.63
2017-04-30T11:59:40.693Z,23.7
2017-04-30T12:00:50.607Z,23.7
2017-04-30T12:01:59.923Z,23.7
2017-04-30T12:03:09.542Z,23.68
2017-04-30T12:04:19.616Z,23.68
2017-04-30T12:05:29.234Z,23.68
2017-04-30T12:06:38.848Z,23.72
2017-04-30T12:07:49.080Z,23.66
2017-04-30T12:08:58.988Z,23.63
2017-04-30T12:10:09.065Z,23.65
2017-04-30T12:11:18.673Z,23.68
2017-04-30T12:12:28.287Z,23.65
2017-04-30T12:13:37.900Z,23.63
2017-04-30T12:14:47.507Z,23.61
2017-04-30T12:15:57.582Z,23.63
2017-04-30T12:17:07.825Z,23.63
2017-04-30T12:18:17.744Z,23.53
2017-04-30T12:19:27.658Z,23.61
2017-04-30T12:20:37.266Z,23.6
2017-04-30T12:21:47.633Z,23.58
2017-04-30T12:22:57.246Z,23.61
2017-04-30T12:24:07.464Z,23.6
2017-04-30T12:25:17.062Z,23.54
2017-04-30T12:26:26.977Z,23.53
2017-04-30T12:27:37.056Z,23.55
2017-04-30T12:28:47.325Z,23.58
2017-04-30T12:29:56.935Z,23.61
2017-04-30T12:31:06.845Z,23.58
2017-04-30T12:32:16.757Z,23.57
2017-04-30T12:33:26.840Z,23.54
2017-04-30T12:34:36.763Z,23.6
2017-04-30T12:35:46.381Z,23.54
2017-04-30T12:36:55.685Z,23.53
2017-04-30T12:38:05.295Z,23.6
2017-04-30T12:39:15.072Z,23.6
2017-04-30T12:40:24.688Z,23.5
2017-04-30T12:41:34.607Z,23.55
2017-04-30T12:42:44.212Z,23.58
2017-04-30T12:43:54.438Z,23.54
2017-04-30T12:45:04.817Z,23.58
2017-04-30T12:46:14.728Z,23.53
2017-04-30T12:47:24.646Z,23.54
2017-04-30T12:48:34.313Z,23.53
2017-04-30T12:49:43.933Z,23.51
2017-04-30T12:50:54.318Z,23.6
2017-04-30T12:52:04.233Z,23.54
2017-04-30T12:53:13.833Z,23.57
2017-04-30T12:54:24.067Z,23.5
2017-04-30T12:55:33.993Z,23.58
2017-04-30T12:56:44.067Z,23.55
2017-04-30T12:57:53.987Z,23.55
2017-04-30T12:59:03.898Z,23.5
2017-04-30T13:00:14.129Z,23.53
2017-04-30T13:01:24.355Z,23.48
2017-04-30T13:02:34.067Z,23.53
2017-04-30T13:03:43.975Z,23.51
2017-04-30T13:04:54.210Z,23.54
2017-04-30T13:06:04.436Z,23.57
2017-04-30T13:07:13.743Z,23.43
2017-04-30T13:08:23.784Z,23.54
2017-04-30T13:09:33.704Z,23.53
2017-04-30T13:10:43.933Z,23.48
2017-04-30T13:11:54.152Z,23.53
2017-04-30T13:13:04.069Z,23.5
2017-04-30T13:14:14.075Z,23.46
2017-04-30T13:15:23.685Z,23.5
2017-04-30T13:16:33.588Z,23.51
2017-04-30T13:17:43.825Z,23.54
2017-04-30T13:18:53.125Z,23.5
2017-04-30T13:20:02.529Z,23.53
2017-04-30T13:21:12.438Z,23.5
2017-04-30T13:22:22.036Z,23.48
2017-04-30T13:23:31.954Z,23.53
2017-04-30T13:24:42.182Z,23.48
2017-04-30T13:25:52.507Z,23.47
2017-04-30T13:27:02.107Z,23.58
2017-04-30T13:28:11.739Z,23.48
2017-04-30T13:29:21.967Z,23.54
2017-04-30T13:30:32.247Z,23.54
2017-04-30T13:31:41.384Z,23.54
2017-04-30T13:32:51.614Z,23.53
2017-04-30T13:34:01.845Z,23.47
2017-04-30T13:35:11.759Z,23.5
2017-04-30T13:36:21.667Z,23.55
2017-04-30T13:37:31.724Z,23.46
2017-04-30T13:38:41.344Z,23.51
2017-04-30T13:39:51.575Z,23.57
2017-04-30T13:41:01.807Z,23.51
2017-04-30T13:42:11.734Z,23.5
2017-04-30T13:43:21.807Z,23.54
2017-04-30T13:44:32.117Z,23.58
2017-04-30T13:45:41.422Z,23.5
2017-04-30T13:46:51.354Z,23.55
2017-04-30T13:48:01.284Z,23.54
2017-04-30T13:49:11.655Z,23.51
2017-04-30T13:50:21.577Z,23.48
2017-04-30T13:51:31.500Z,23.57
2017-04-30T13:52:41.810Z,23.53
2017-04-30T13:53:51.742Z,23.54
2017-04-30T13:55:01.827Z,23.57
2017-04-30T13:56:11.748Z,23.54
2017-04-30T13:57:21.972Z,23.57
2017-04-30T13:58:31.892Z,23.47
2017-04-30T13:59:42.114Z,23.54
2017-04-30T14:00:52.208Z,23.57
2017-04-30T14:02:01.813Z,23.48
2017-04-30T14:03:11.409Z,23.54
2017-04-30T14:04:21.622Z,23.57
2017-04-30T14:05:31.840Z,23.51
2017-04-30T14:06:41.910Z,23.58
2017-04-30T14:07:52.145Z,23.46
2017-04-30T14:09:02.371Z,23.5
2017-04-30T14:10:11.985Z,23.53
2017-04-30T14:11:21.913Z,23.55
2017-04-30T14:12:31.663Z,23.54
2017-04-30T14:13:41.273Z,23.57
2017-04-30T14:14:51.183Z,23.53
2017-04-30T14:16:01.410Z,23.57
2017-04-30T14:17:11.645Z,23.51
2017-04-30T14:18:21.707Z,23.51
2017-04-30T14:19:31.342Z,23.51
2017-04-30T14:20:41.267Z,23.5
2017-04-30T14:21:51.479Z,23.48
2017-04-30T14:23:01.701Z,23.51
2017-04-30T14:24:11.155Z,23.5
2017-04-30T14:25:21.396Z,23.51
2017-04-30T14:26:31.310Z,23.53
2017-04-30T14:27:41.537Z,23.5
2017-04-30T14:28:51.460Z,23.57
2017-04-30T14:30:00.935Z,23.54
2017-04-30T14:31:10.545Z,23.5
2017-04-30T14:32:20.466Z,23.5
2017-04-30T14:33:30.396Z,23.5
2017-04-30T14:34:40.630Z,23.47
2017-04-30T14:35:50.701Z,23.5
2017-04-30T14:37:00.325Z,23.53
2017-04-30T14:38:09.947Z,23.51
2017-04-30T14:39:19.867Z,23.53
2017-04-30T14:40:30.104Z,23.55
2017-04-30T14:41:39.872Z,23.53
2017-04-30T14:42:49.814Z,23.51
2017-04-30T14:44:00.051Z,23.6
2017-04-30T14:45:10.377Z,23.55
2017-04-30T14:46:20.307Z,23.57
2017-04-30T14:47:30.399Z,23.6
2017-04-30T14:48:41.030Z,23.65
2017-04-30T14:49:51.262Z,23.61
2017-04-30T14:51:01.480Z,23.6
2017-04-30T14:52:11.408Z,23.65
2017-04-30T14:53:21.178Z,23.63
2017-04-30T14:54:30.800Z,23.61
2017-04-30T14:55:40.765Z,23.68
2017-04-30T14:56:50.979Z,23.65
2017-04-30T14:58:00.887Z,23.63
2017-04-30T14:59:11.264Z,23.63
2017-04-30T15:00:21.181Z,23.65
2017-04-30T15:01:30.498Z,23.68
2017-04-30T15:02:40.749Z,23.65
2017-04-30T15:03:50.980Z,23.7